createdAt,value
2019-01-21T00:01:33.050Z,55.47
2019-01-21T00:04:02.624Z,55.00
2019-01-21T00:06:32.131Z,57.43
2019-01-21T00:09:01.659Z,57.00
2019-01-21T00:11:31.194Z,53.90
2019-01-21T00:14:02.298Z,56.93
2019-01-21T00:16:32.140Z,56.20
2019-01-21T00:19:01.672Z,56.13
2019-01-21T00:21:31.525Z,62.27
2019-01-21T00:24:01.636Z,53.47
2019-01-21T00:26:31.587Z,55.78
2019-01-21T00:29:01.124Z,53.37
2019-01-21T00:31:30.660Z,54.27
2019-01-21T00:34:00.221Z,55.12
2019-01-21T00:36:29.727Z,56.30
2019-01-21T00:39:00.018Z,54.50
2019-01-21T00:41:29.657Z,55.27
2019-01-21T00:43:59.153Z,56.37
2019-01-21T00:46:28.739Z,53.87
2019-01-21T00:48:58.245Z,56.05
2019-01-21T00:51:28.401Z,55.05
2019-01-21T00:53:57.954Z,55.37
2019-01-21T00:56:27.502Z,54.97
2019-01-21T00:58:56.986Z,54.37
2019-01-21T01:01:26.508Z,54.30
2019-01-21T01:03:56.837Z,54.53
2019-01-21T01:06:26.349Z,52.97
2019-01-21T01:08:55.919Z,58.20
2019-01-21T01:11:25.447Z,56.60
2019-01-21T01:13:54.974Z,60.23
2019-01-21T01:16:25.244Z,59.35
2019-01-21T01:18:54.770Z,57.23
2019-01-21T01:21:24.327Z,56.10
2019-01-21T01:23:53.828Z,58.52
2019-01-21T01:26:23.368Z,61.83
2019-01-21T01:28:53.715Z,63.70
2019-01-21T01:31:23.241Z,58.10
2019-01-21T01:33:52.771Z,63.43
2019-01-21T01:36:22.292Z,60.35
2019-01-21T01:38:51.793Z,57.33
2019-01-21T01:41:22.268Z,59.00
2019-01-21T01:43:51.792Z,61.83
2019-01-21T01:46:21.402Z,63.00
2019-01-21T01:48:50.917Z,59.47
2019-01-21T01:51:20.448Z,59.93
2019-01-21T01:53:50.732Z,60.35
2019-01-21T01:56:20.309Z,53.87
2019-01-21T01:58:49.878Z,61.27
2019-01-21T02:01:19.459Z,57.80
2019-01-21T02:03:48.949Z,64.37
2019-01-21T02:06:19.274Z,60.45
2019-01-21T02:08:48.803Z,58.43
2019-01-21T02:11:18.318Z,60.77
2019-01-21T02:13:47.841Z,64.73
2019-01-21T02:16:17.561Z,63.97
2019-01-21T02:18:47.656Z,64.82
2019-01-21T02:21:57.398Z,61.30
2019-01-21T02:24:41.238Z,62.23
2019-01-21T02:27:13.783Z,65.35
2019-01-21T02:30:05.225Z,63.93
2019-01-21T02:32:47.975Z,75.50
2019-01-21T02:35:27.922Z,68.50
2019-01-21T02:38:10.636Z,73.23
2019-01-21T02:40:47.555Z,70.17
2019-01-21T02:43:30.828Z,73.40
2019-01-21T02:46:46.974Z,70.33
2019-01-21T02:49:55.761Z,74.03
2019-01-21T02:52:38.580Z,72.20
2019-01-21T02:55:32.895Z,75.10
2019-01-21T02:58:35.479Z,72.47
2019-01-21T03:01:18.558Z,69.57
2019-01-21T03:03:52.815Z,68.87
2019-01-21T03:06:38.517Z,67.37
2019-01-21T03:09:33.122Z,70.50
2019-01-21T03:12:15.901Z,71.17
2019-01-21T03:15:01.951Z,75.28
2019-01-21T03:17:50.221Z,69.83
2019-01-21T03:21:04.629Z,66.37
2019-01-21T03:23:48.660Z,65.32
2019-01-21T03:26:43.521Z,63.20
2019-01-21T03:29:32.685Z,64.93
2019-01-21T03:32:29.154Z,68.63
2019-01-21T03:35:40.579Z,62.43
2019-01-21T03:38:20.154Z,64.30
2019-01-21T03:41:03.234Z,64.93
2019-01-21T03:43:53.621Z,61.27
2019-01-21T03:46:52.594Z,66.53
2019-01-21T03:49:45.834Z,66.00
2019-01-21T03:52:49.239Z,64.83
2019-01-21T03:55:19.373Z,71.57
2019-01-21T03:58:27.541Z,69.03
2019-01-21T04:01:18.904Z,63.05
2019-01-21T04:04:16.895Z,67.30
2019-01-21T04:06:54.145Z,68.43
2019-01-21T04:09:42.951Z,63.78
2019-01-21T04:12:38.348Z,66.12
2019-01-21T04:15:27.566Z,66.33
2019-01-21T04:18:31.912Z,58.23
2019-01-21T04:21:41.688Z,62.27
2019-01-21T04:24:53.132Z,60.57
2019-01-21T04:27:39.183Z,63.20
2019-01-21T04:30:31.089Z,64.93
2019-01-21T04:33:36.706Z,65.30
2019-01-21T04:36:46.498Z,66.23
2019-01-21T04:39:26.429Z,64.17
2019-01-21T04:42:06.357Z,60.63
2019-01-21T04:44:57.507Z,65.07
2019-01-21T04:47:57.853Z,62.43
2019-01-21T04:51:03.546Z,65.78
2019-01-21T04:53:52.456Z,64.20
2019-01-21T04:57:03.459Z,68.63
2019-01-21T04:59:55.404Z,66.97
2019-01-21T05:02:38.151Z,66.73
2019-01-21T05:05:40.500Z,69.40
2019-01-21T05:08:50.483Z,72.97
2019-01-21T05:11:24.745Z,73.53
2019-01-21T05:14:19.980Z,74.73
2019-01-21T05:17:11.790Z,72.73
2019-01-21T05:20:21.746Z,75.67
2019-01-21T05:23:49.294Z,74.90
2019-01-21T05:27:10.713Z,70.03
2019-01-21T05:29:44.908Z,73.53
2019-01-21T05:32:48.433Z,72.17
2019-01-21T05:35:25.848Z,77.27
2019-01-21T05:38:17.825Z,66.87
2019-01-21T05:41:06.201Z,67.23
2019-01-21T05:44:14.139Z,75.35
2019-01-21T05:47:13.624Z,69.93
2019-01-21T05:50:08.455Z,75.60
2019-01-21T05:53:13.769Z,75.33
2019-01-21T05:56:19.172Z,73.27
2019-01-21T05:59:14.335Z,70.17
2019-01-21T06:02:23.867Z,67.07
2019-01-21T06:05:12.895Z,71.23
2019-01-21T06:08:34.360Z,66.53
2019-01-21T06:11:44.086Z,68.07
2019-01-21T06:14:44.794Z,68.00
2019-01-21T06:18:12.343Z,73.17
2019-01-21T06:21:19.648Z,69.47
2019-01-21T06:24:47.171Z,72.40
2019-01-21T06:27:33.456Z,72.77
2019-01-21T06:30:24.393Z,74.30
2019-01-21T06:33:24.866Z,73.20
2019-01-21T06:35:59.050Z,77.40
2019-01-21T06:38:49.429Z,79.37
2019-01-21T06:41:38.063Z,76.97
2019-01-21T06:44:33.181Z,78.17
2019-01-21T06:47:30.592Z,77.77
2019-01-21T06:50:13.603Z,79.77
2019-01-21T06:53:12.961Z,74.70
2019-01-21T06:56:10.784Z,71.00
2019-01-21T06:59:25.080Z,69.07
2019-01-21T07:02:23.107Z,71.77
2019-01-21T07:05:09.362Z,71.97
2019-01-21T07:08:18.476Z,69.57
2019-01-21T07:11:10.250Z,67.47
2019-01-21T07:13:59.142Z,65.83
2019-01-21T07:16:36.281Z,64.97
2019-01-21T07:19:33.545Z,71.87
2019-01-21T07:22:13.599Z,73.27
2019-01-21T07:25:41.137Z,69.17
2019-01-21T07:28:29.983Z,77.47
2019-01-21T07:31:24.836Z,75.20
2019-01-21T07:34:13.415Z,72.53
2019-01-21T07:37:12.862Z,80.37
2019-01-21T07:40:01.299Z,69.53
2019-01-21T07:43:08.107Z,69.60
2019-01-21T07:45:58.423Z,65.07
2019-01-21T07:48:51.630Z,66.53
2019-01-21T07:51:37.523Z,69.95
2019-01-21T07:54:31.026Z,74.30
2019-01-21T07:57:33.648Z,74.57
2019-01-21T08:00:37.480Z,77.47
2019-01-21T08:03:44.568Z,74.27
2019-01-21T08:06:27.264Z,83.15
2019-01-21T08:09:07.516Z,79.50
2019-01-21T08:12:03.746Z,71.03
2019-01-21T08:14:52.760Z,77.40
2019-01-21T08:17:46.009Z,78.40
2019-01-21T08:20:23.181Z,77.35
2019-01-21T08:23:09.358Z,76.10
2019-01-21T08:26:04.108Z,75.17
2019-01-21T08:28:46.783Z,78.30
2019-01-21T08:31:32.821Z,76.10
2019-01-21T08:34:35.456Z,78.53
2019-01-21T08:37:43.941Z,84.97
2019-01-21T08:40:40.274Z,80.40
2019-01-21T08:43:29.261Z,84.10
2019-01-21T08:46:24.302Z,88.43
2019-01-21T08:49:13.364Z,81.17
2019-01-21T08:52:16.786Z,84.47
2019-01-21T08:55:28.421Z,82.60
2019-01-21T08:58:36.989Z,79.77
2019-01-21T09:01:26.017Z,80.30
2019-01-21T09:04:02.889Z,88.97
2019-01-21T09:06:48.894Z,99.80
2019-01-21T09:09:28.745Z,82.40
2019-01-21T09:12:14.780Z,84.83
2019-01-21T09:15:06.823Z,78.97
2019-01-21T09:17:55.736Z,79.33
2019-01-21T09:20:56.179Z,75.80
2019-01-21T09:23:39.033Z,76.77
2019-01-21T09:26:21.909Z,76.83
2019-01-21T09:29:05.025Z,81.35
2019-01-21T09:31:54.260Z,73.90
2019-01-21T09:34:50.646Z,77.67
2019-01-21T09:37:45.025Z,71.53
2019-01-21T09:40:30.793Z,74.93
2019-01-21T09:43:13.911Z,75.60
2019-01-21T09:46:16.255Z,76.40
2019-01-21T09:48:44.162Z,74.05
2019-01-21T09:51:15.081Z,77.55
2019-01-21T09:53:47.820Z,75.80
2019-01-21T09:56:18.292Z,77.23
2019-01-21T09:58:49.254Z,72.33
2019-01-21T10:01:19.895Z,79.40
2019-01-21T10:03:50.473Z,72.10
2019-01-21T10:06:24.011Z,71.70
2019-01-21T10:09:24.916Z,81.63
2019-01-21T10:12:38.355Z,78.85
2019-01-21T10:15:12.526Z,74.87
2019-01-21T10:17:46.699Z,73.53
2019-01-21T10:21:15.078Z,72.20
2019-01-21T10:23:58.214Z,74.53
2019-01-21T10:26:53.284Z,71.77
2019-01-21T10:29:36.239Z,74.90
2019-01-21T10:32:26.690Z,70.13
2019-01-21T10:35:24.710Z,73.00
2019-01-21T10:38:17.624Z,74.27
2019-01-21T10:41:00.565Z,80.03
2019-01-21T10:44:19.627Z,78.70
2019-01-21T10:47:08.434Z,79.37
2019-01-21T10:49:57.552Z,69.30
2019-01-21T10:52:50.288Z,72.20
2019-01-21T10:55:55.570Z,70.43
2019-01-21T10:58:53.120Z,72.95
2019-01-21T11:01:56.276Z,78.60
2019-01-21T11:04:58.316Z,70.17
2019-01-21T11:08:00.586Z,75.60
2019-01-21T11:10:40.265Z,73.50
2019-01-21T11:13:33.561Z,70.53
2019-01-21T11:16:39.269Z,74.70
2019-01-21T11:19:30.977Z,73.10
2019-01-21T11:22:05.150Z,70.27
2019-01-21T11:24:51.037Z,79.70
2019-01-21T11:27:30.999Z,68.73
2019-01-21T11:30:33.633Z,68.10
2019-01-21T11:33:28.036Z,64.47
2019-01-21T11:36:24.739Z,70.40
2019-01-21T11:39:13.857Z,70.73
2019-01-21T11:42:14.280Z,67.00
2019-01-21T11:45:41.833Z,69.77
2019-01-21T11:48:39.643Z,66.22
2019-01-21T11:51:42.075Z,71.00
2019-01-21T11:54:38.488Z,71.90
2019-01-21T11:57:49.901Z,78.87
2019-01-21T12:00:24.195Z,66.70
2019-01-21T12:03:23.878Z,61.57
2019-01-21T12:05:57.248Z,62.35
2019-01-21T12:08:55.266Z,65.93
2019-01-21T12:11:44.355Z,64.60
2019-01-21T12:14:54.152Z,60.77
2019-01-21T12:17:53.504Z,66.80
2019-01-21T12:20:27.752Z,62.00
2019-01-21T12:23:19.507Z,67.17
2019-01-21T12:25:56.262Z,62.63
2019-01-21T12:28:48.567Z,61.40
2019-01-21T12:31:43.262Z,59.40
2019-01-21T12:34:35.097Z,59.60
2019-01-21T12:37:09.293Z,58.70
2019-01-21T12:39:46.108Z,60.47
2019-01-21T12:42:23.012Z,62.70
2019-01-21T12:45:21.156Z,56.10
2019-01-21T12:48:09.878Z,56.57
2019-01-21T12:51:12.129Z,54.23
2019-01-21T12:54:39.677Z,53.80
2019-01-21T12:57:46.714Z,60.70
2019-01-21T13:00:29.315Z,55.53
2019-01-21T13:03:20.574Z,60.87
2019-01-21T13:06:00.590Z,60.43
2019-01-21T13:08:55.464Z,55.20
2019-01-21T13:11:35.248Z,56.73
2019-01-21T13:14:31.509Z,54.13
2019-01-21T13:17:05.741Z,51.05
2019-01-21T13:20:00.269Z,56.28
2019-01-21T13:22:51.604Z,56.00
2019-01-21T13:25:56.342Z,54.73
2019-01-21T13:28:42.517Z,50.80
2019-01-21T13:31:28.585Z,55.37
2019-01-21T13:34:44.600Z,53.63
2019-01-21T13:37:54.389Z,57.43
2019-01-21T13:41:10.379Z,54.43
2019-01-21T13:44:08.389Z,58.00
2019-01-21T13:46:59.927Z,59.10
2019-01-21T13:49:51.801Z,69.73
2019-01-21T13:52:37.410Z,58.53
2019-01-21T13:55:29.461Z,59.63
2019-01-21T13:58:18.405Z,63.93
2019-01-21T14:01:10.282Z,68.53
2019-01-21T14:04:06.039Z,67.73
2019-01-21T14:06:58.264Z,62.43
2019-01-21T14:10:05.256Z,62.17
2019-01-21T14:12:57.226Z,66.15
2019-01-21T14:15:36.478Z,64.60
2019-01-21T14:18:27.553Z,67.37
2019-01-21T14:21:22.353Z,66.73
2019-01-21T14:24:17.512Z,71.13
2019-01-21T14:27:00.262Z,63.87
2019-01-21T14:29:55.022Z,67.27
2019-01-21T14:32:47.319Z,69.17
2019-01-21T14:35:29.759Z,68.53
2019-01-21T14:38:09.656Z,69.07
2019-01-21T14:41:10.707Z,64.50
2019-01-21T14:44:21.774Z,64.00
2019-01-21T14:47:04.784Z,66.97
2019-01-21T14:49:50.986Z,62.03
2019-01-21T14:52:33.836Z,63.90
2019-01-21T14:55:28.853Z,67.70
2019-01-21T14:58:05.973Z,66.10
2019-01-21T15:00:48.579Z,67.50
2019-01-21T15:03:58.395Z,64.90
2019-01-21T15:07:04.315Z,69.90
2019-01-21T15:10:17.096Z,70.80
2019-01-21T15:13:05.761Z,73.00
2019-01-21T15:15:51.484Z,66.53
2019-01-21T15:18:46.386Z,70.67
2019-01-21T15:21:35.110Z,73.73
2019-01-21T15:24:23.392Z,73.43
2019-01-21T15:27:00.139Z,74.10
2019-01-21T15:29:40.063Z,72.97
2019-01-21T15:32:25.963Z,74.83
2019-01-21T15:35:20.495Z,70.07
2019-01-21T15:38:36.238Z,70.60
2019-01-21T15:41:32.727Z,71.60
2019-01-21T15:44:09.733Z,67.23
2019-01-21T15:46:52.795Z,68.33
2019-01-21T15:49:35.932Z,70.53
2019-01-21T15:52:24.886Z,71.37
2019-01-21T15:55:25.611Z,72.93
2019-01-21T15:58:08.460Z,73.03
2019-01-21T16:00:57.153Z,74.33
2019-01-21T16:04:01.336Z,76.30
2019-01-21T16:06:59.952Z,72.20
2019-01-21T16:09:36.717Z,77.83
2019-01-21T16:12:28.538Z,73.00
2019-01-21T16:15:40.289Z,71.80
2019-01-21T16:18:29.280Z,74.10
2019-01-21T16:21:39.661Z,68.50
2019-01-21T16:24:28.520Z,78.90
2019-01-21T16:27:10.918Z,71.43
2019-01-21T16:29:53.887Z,77.23
2019-01-21T16:32:25.948Z,74.77
2019-01-21T16:35:21.048Z,76.25
2019-01-21T16:38:00.820Z,78.13
2019-01-21T16:41:02.485Z,76.17
2019-01-21T16:43:44.658Z,78.57
2019-01-21T16:46:14.181Z,81.82
2019-01-21T16:48:43.788Z,73.40
2019-01-21T16:51:19.999Z,71.90
2019-01-21T16:53:44.625Z,73.83
2019-01-21T16:56:14.300Z,77.27
2019-01-21T16:58:44.951Z,82.57
2019-01-21T17:01:14.450Z,79.63
2019-01-21T17:03:44.077Z,79.43
2019-01-21T17:06:13.808Z,82.33
2019-01-21T17:08:43.309Z,81.72
2019-01-21T17:11:13.227Z,80.42
2019-01-21T17:13:42.821Z,79.50
2019-01-21T17:16:12.320Z,77.83
2019-01-21T17:18:41.944Z,83.40
2019-01-21T17:21:11.525Z,86.37
2019-01-21T17:23:41.739Z,95.00
2019-01-21T17:26:11.283Z,108.20
2019-01-21T17:28:40.989Z,92.53
2019-01-21T17:31:10.550Z,87.43
2019-01-21T17:33:40.081Z,78.60
2019-01-21T17:36:29.575Z,82.50
2019-01-21T17:38:59.125Z,82.82
2019-01-21T17:41:28.793Z,78.43
2019-01-21T17:43:58.336Z,77.27
2019-01-21T17:46:27.892Z,85.87
2019-01-21T17:49:16.772Z,82.67
2019-01-21T17:52:05.613Z,81.57
2019-01-21T17:54:46.187Z,75.27
2019-01-21T17:57:35.026Z,79.37
2019-01-21T18:00:08.036Z,77.70
2019-01-21T18:02:37.575Z,79.97
2019-01-21T18:05:08.166Z,85.00
2019-01-21T18:07:37.665Z,85.90
2019-01-21T18:10:11.951Z,81.27
2019-01-21T18:12:41.619Z,77.07
2019-01-21T18:15:13.245Z,77.87
2019-01-21T18:18:02.136Z,77.53
2019-01-21T18:20:32.690Z,80.17
2019-01-21T18:23:02.337Z,77.73
2019-01-21T18:25:33.059Z,85.70
2019-01-21T18:28:02.629Z,74.83
2019-01-21T18:30:32.327Z,76.33
2019-01-21T18:33:01.892Z,84.10
2019-01-21T18:35:31.496Z,74.20
2019-01-21T18:38:02.532Z,79.07
2019-01-21T18:40:32.044Z,73.87
2019-01-21T18:43:01.625Z,76.43
2019-01-21T18:45:31.654Z,76.77
2019-01-21T18:48:01.165Z,69.30
2019-01-21T18:50:30.701Z,70.43
2019-01-21T18:53:00.781Z,73.17
2019-01-21T18:55:30.323Z,71.27
2019-01-21T18:57:59.926Z,76.63
2019-01-21T19:00:29.560Z,74.80
2019-01-21T19:02:59.137Z,79.53
2019-01-21T19:05:29.188Z,79.40
2019-01-21T19:07:58.743Z,77.77
2019-01-21T19:10:28.326Z,76.80
2019-01-21T19:12:57.798Z,66.17
2019-01-21T19:15:30.761Z,71.93
2019-01-21T19:18:00.261Z,69.60
2019-01-21T19:20:30.085Z,70.53
2019-01-21T19:22:59.683Z,73.53
2019-01-21T19:25:40.212Z,69.13
2019-01-21T19:28:41.588Z,73.37
2019-01-21T19:31:11.167Z,81.30
2019-01-21T19:33:40.703Z,79.97
2019-01-21T19:36:10.237Z,81.45
2019-01-21T19:38:39.730Z,76.87
2019-01-21T19:41:09.338Z,82.60
2019-01-21T19:43:38.831Z,79.37
2019-01-21T19:46:08.415Z,84.43
2019-01-21T19:48:37.988Z,78.60
2019-01-21T19:51:07.576Z,83.77
2019-01-21T19:53:37.063Z,77.37
2019-01-21T19:56:06.864Z,75.97
2019-01-21T19:58:36.367Z,76.93
2019-01-21T20:01:05.990Z,83.47
2019-01-21T20:03:36.192Z,77.07
2019-01-21T20:06:25.521Z,85.67
2019-01-21T20:09:26.963Z,81.33
2019-01-21T20:11:56.570Z,77.93
2019-01-21T20:14:45.428Z,77.27
2019-01-21T20:17:16.211Z,75.57
2019-01-21T20:19:45.847Z,75.50
2019-01-21T20:22:15.398Z,82.60
2019-01-21T20:24:44.901Z,74.77
2019-01-21T20:27:14.402Z,75.77
2019-01-21T20:29:45.309Z,71.87
2019-01-21T20:32:14.950Z,76.20
2019-01-21T20:34:44.510Z,74.30
2019-01-21T20:37:14.058Z,77.65
2019-01-21T20:39:43.626Z,82.17
2019-01-21T20:42:13.978Z,87.22
2019-01-21T20:44:43.534Z,85.67
2019-01-21T20:47:13.067Z,82.67
2019-01-21T20:49:42.572Z,75.53
2019-01-21T20:52:31.459Z,77.23
2019-01-21T20:55:20.642Z,88.90
2019-01-21T20:57:50.261Z,81.80
2019-01-21T21:00:26.059Z,84.47
2019-01-21T21:02:56.614Z,97.10
2019-01-21T21:05:26.226Z,81.13
2019-01-21T21:07:55.905Z,77.97
2019-01-21T21:10:25.612Z,76.43
2019-01-21T21:12:55.277Z,77.90
2019-01-21T21:15:28.876Z,76.27
2019-01-21T21:17:58.374Z,73.23
2019-01-21T21:20:27.966Z,78.00
2019-01-21T21:22:57.617Z,73.63
2019-01-21T21:28:47.279Z,76.57
2019-01-21T21:31:16.825Z,78.23
2019-01-21T21:33:46.418Z,78.40
2019-01-21T21:36:15.967Z,75.83
2019-01-21T21:38:47.088Z,77.33
2019-01-21T21:41:16.662Z,75.67
2019-01-21T21:43:46.166Z,80.73
2019-01-21T21:46:15.743Z,74.70
2019-01-21T21:48:45.274Z,75.23
2019-01-21T21:51:15.836Z,77.03
2019-01-21T21:53:45.329Z,73.27
2019-01-21T21:56:14.881Z,72.73
2019-01-21T21:58:44.381Z,81.03
2019-01-21T22:01:13.925Z,80.07
2019-01-21T22:03:44.111Z,75.40
2019-01-21T22:06:13.745Z,76.37
2019-01-21T22:08:43.262Z,70.23
2019-01-21T22:11:12.816Z,71.13
2019-01-21T22:13:42.467Z,75.07
2019-01-21T22:16:12.627Z,69.65
2019-01-21T22:18:42.150Z,74.13
2019-01-21T22:21:11.659Z,71.03
2019-01-21T22:23:41.262Z,71.25
2019-01-21T22:26:10.871Z,79.60
2019-01-21T22:28:41.262Z,72.47
2019-01-21T22:31:10.940Z,69.07
2019-01-21T22:33:40.466Z,72.37
2019-01-21T22:36:09.989Z,71.03
2019-01-21T22:38:39.490Z,74.80
2019-01-21T22:41:09.552Z,74.70
2019-01-21T22:43:39.133Z,72.80
2019-01-21T22:46:08.623Z,73.67
2019-01-21T22:48:38.144Z,71.87
2019-01-21T22:51:07.637Z,73.80
2019-01-21T22:53:37.895Z,67.90
2019-01-21T22:56:07.458Z,75.93
2019-01-21T22:58:36.984Z,73.40
2019-01-21T23:01:38.407Z,70.15
2019-01-21T23:04:08.106Z,69.57
2019-01-21T23:06:37.658Z,73.20
2019-01-21T23:09:08.480Z,68.77
2019-01-21T23:11:38.092Z,69.40
2019-01-21T23:14:07.873Z,75.97
2019-01-21T23:16:37.457Z,66.17
2019-01-21T23:19:07.067Z,67.80
2019-01-21T23:21:36.587Z,69.77
2019-01-21T23:24:06.210Z,73.47
2019-01-21T23:26:35.902Z,72.87
2019-01-21T23:29:05.762Z,66.63
2019-01-21T23:31:35.301Z,75.90
2019-01-21T23:34:04.889Z,70.67
2019-01-21T23:36:34.434Z,70.80
2019-01-21T23:39:06.142Z,69.40
2019-01-21T23:41:35.645Z,74.47
2019-01-21T23:44:05.570Z,77.93
2019-01-21T23:46:35.065Z,79.40
2019-01-21T23:49:04.815Z,85.90
2019-01-21T23:51:34.590Z,79.57
2019-01-21T23:54:04.421Z,73.50
2019-01-21T23:56:33.981Z,75.25
2019-01-21T23:59:04.049Z,74.40
